sensor_id;sensor_type;location;lat;lon;timestamp;P1;durP1;ratioP1;P2;durP2;ratioP2
29162;SDS011;20331;53.144;8.208;2023-11-21T00:04:02;29.20;;;9.38;;
29162;SDS011;20331;53.144;8.208;2023-11-21T00:09:24;36.92;;;9.13;;
29162;SDS011;20331;53.144;8.208;2023-11-21T00:14:45;36.35;;;9.60;;
29162;SDS011;20331;53.144;8.208;2023-11-21T00:20:07;28.75;;;9.60;;
29162;SDS011;20331;53.144;8.208;2023-11-21T00:25:29;31.50;;;9.82;;
29162;SDS011;20331;53.144;8.208;2023-11-21T00:30:52;35.53;;;9.52;;
29162;SDS011;20331;53.144;8.208;2023-11-21T00:36:15;31.48;;;9.52;;
29162;SDS011;20331;53.144;8.208;2023-11-21T00:41:36;34.22;;;10.07;;
29162;SDS011;20331;53.144;8.208;2023-11-21T00:46:58;30.15;;;10.07;;
29162;SDS011;20331;53.144;8.208;2023-11-21T00:52:20;35.40;;;11.25;;
29162;SDS011;20331;53.144;8.208;2023-11-21T00:57:42;38.05;;;11.10;;
29162;SDS011;20331;53.144;8.208;2023-11-21T01:03:03;31.35;;;11.07;;
29162;SDS011;20331;53.144;8.208;2023-11-21T01:08:25;30.33;;;10.85;;
29162;SDS011;20331;53.144;8.208;2023-11-21T01:13:47;34.70;;;10.82;;
29162;SDS011;20331;53.144;8.208;2023-11-21T01:19:09;38.22;;;11.60;;
29162;SDS011;20331;53.144;8.208;2023-11-21T01:24:31;40.03;;;12.15;;
29162;SDS011;20331;53.144;8.208;2023-11-21T01:29:52;39.55;;;11.60;;
29162;SDS011;20331;53.144;8.208;2023-11-21T01:35:15;41.92;;;13.02;;
29162;SDS011;20331;53.144;8.208;2023-11-21T01:40:36;55.80;;;13.52;;
29162;SDS011;20331;53.144;8.208;2023-11-21T01:45:58;39.30;;;13.05;;
29162;SDS011;20331;53.144;8.208;2023-11-21T01:51:20;45.65;;;13.02;;
29162;SDS011;20331;53.144;8.208;2023-11-21T01:56:41;41.00;;;14.13;;
29162;SDS011;20331;53.144;8.208;2023-11-21T02:02:04;29.48;;;13.63;;
29162;SDS011;20331;53.144;8.208;2023-11-21T02:07:27;38.30;;;13.65;;
29162;SDS011;20331;53.144;8.208;2023-11-21T02:12:49;42.55;;;14.75;;
29162;SDS011;20331;53.144;8.208;2023-11-21T02:18:14;31.70;;;13.60;;
29162;SDS011;20331;53.144;8.208;2023-11-21T02:23:36;37.03;;;13.75;;
29162;SDS011;20331;53.144;8.208;2023-11-21T02:28:59;41.30;;;13.50;;
29162;SDS011;20331;53.144;8.208;2023-11-21T02:34:22;44.22;;;13.00;;
29162;SDS011;20331;53.144;8.208;2023-11-21T02:39:46;38.35;;;13.07;;
29162;SDS011;20331;53.144;8.208;2023-11-21T02:45:08;41.85;;;13.25;;
29162;SDS011;20331;53.144;8.208;2023-11-21T02:50:33;42.15;;;11.52;;
29162;SDS011;20331;53.144;8.208;2023-11-21T02:55:56;37.28;;;11.68;;
29162;SDS011;20331;53.144;8.208;2023-11-21T03:01:18;36.50;;;11.68;;
29162;SDS011;20331;53.144;8.208;2023-11-21T03:06:40;33.10;;;10.73;;
29162;SDS011;20331;53.144;8.208;2023-11-21T03:12:02;43.40;;;10.77;;
29162;SDS011;20331;53.144;8.208;2023-11-21T03:17:23;34.22;;;11.02;;
29162;SDS011;20331;53.144;8.208;2023-11-21T03:22:46;42.53;;;10.68;;
29162;SDS011;20331;53.144;8.208;2023-11-21T03:28:07;46.53;;;11.57;;
29162;SDS011;20331;53.144;8.208;2023-11-21T03:33:29;37.58;;;12.52;;
29162;SDS011;20331;53.144;8.208;2023-11-21T03:38:51;41.83;;;12.70;;
29162;SDS011;20331;53.144;8.208;2023-11-21T03:44:13;30.08;;;12.57;;
29162;SDS011;20331;53.144;8.208;2023-11-21T03:49:35;35.92;;;13.20;;
29162;SDS011;20331;53.144;8.208;2023-11-21T03:54:57;43.53;;;13.77;;
29162;SDS011;20331;53.144;8.208;2023-11-21T04:00:19;43.80;;;13.88;;
29162;SDS011;20331;53.144;8.208;2023-11-21T04:05:43;43.83;;;14.45;;
29162;SDS011;20331;53.144;8.208;2023-11-21T04:11:07;36.83;;;14.15;;
29162;SDS011;20331;53.144;8.208;2023-11-21T04:16:28;37.88;;;14.65;;
29162;SDS011;20331;53.144;8.208;2023-11-21T04:21:50;43.80;;;15.88;;
29162;SDS011;20331;53.144;8.208;2023-11-21T04:27:12;52.45;;;17.27;;
29162;SDS011;20331;53.144;8.208;2023-11-21T04:32:34;51.88;;;18.40;;
29162;SDS011;20331;53.144;8.208;2023-11-21T04:37:56;50.22;;;20.17;;
29162;SDS011;20331;53.144;8.208;2023-11-21T04:43:18;63.08;;;21.70;;
29162;SDS011;20331;53.144;8.208;2023-11-21T04:48:40;56.90;;;21.20;;
29162;SDS011;20331;53.144;8.208;2023-11-21T04:54:02;40.88;;;20.60;;
29162;SDS011;20331;53.144;8.208;2023-11-21T04:59:24;43.53;;;20.88;;
29162;SDS011;20331;53.144;8.208;2023-11-21T05:04:46;52.47;;;20.20;;
29162;SDS011;20331;53.144;8.208;2023-11-21T05:10:08;50.65;;;20.80;;
29162;SDS011;20331;53.144;8.208;2023-11-21T05:20:55;37.50;;;19.27;;
29162;SDS011;20331;53.144;8.208;2023-11-21T05:26:17;41.58;;;20.10;;
29162;SDS011;20331;53.144;8.208;2023-11-21T05:31:39;36.90;;;17.45;;
29162;SDS011;20331;53.144;8.208;2023-11-21T05:37:00;38.78;;;17.30;;
29162;SDS011;20331;53.144;8.208;2023-11-21T05:42:22;34.75;;;16.48;;
29162;SDS011;20331;53.144;8.208;2023-11-21T05:47:45;34.22;;;16.38;;
29162;SDS011;20331;53.144;8.208;2023-11-21T05:53:08;31.45;;;16.73;;
29162;SDS011;20331;53.144;8.208;2023-11-21T05:58:31;37.15;;;16.73;;
29162;SDS011;20331;53.144;8.208;2023-11-21T06:03:53;37.72;;;17.30;;
29162;SDS011;20331;53.144;8.208;2023-11-21T06:09:16;34.20;;;15.77;;
29162;SDS011;20331;53.144;8.208;2023-11-21T06:14:37;34.78;;;15.93;;
29162;SDS011;20331;53.144;8.208;2023-11-21T06:19:59;31.15;;;15.40;;
29162;SDS011;20331;53.144;8.208;2023-11-21T06:25:22;37.40;;;17.92;;
29162;SDS011;20331;53.144;8.208;2023-11-21T06:30:44;31.52;;;17.83;;
29162;SDS011;20331;53.144;8.208;2023-11-21T06:36:10;31.13;;;16.27;;
29162;SDS011;20331;53.144;8.208;2023-11-21T06:41:33;25.20;;;15.70;;
29162;SDS011;20331;53.144;8.208;2023-11-21T06:46:55;22.02;;;13.05;;
29162;SDS011;20331;53.144;8.208;2023-11-21T06:52:17;21.45;;;12.07;;
29162;SDS011;20331;53.144;8.208;2023-11-21T06:57:39;17.52;;;11.30;;
29162;SDS011;20331;53.144;8.208;2023-11-21T07:03:01;17.90;;;9.85;;
29162;SDS011;20331;53.144;8.208;2023-11-21T07:08:23;18.00;;;9.50;;
29162;SDS011;20331;53.144;8.208;2023-11-21T07:13:44;16.80;;;9.77;;
29162;SDS011;20331;53.144;8.208;2023-11-21T07:19:07;16.73;;;9.82;;
29162;SDS011;20331;53.144;8.208;2023-11-21T07:24:29;19.38;;;10.50;;
29162;SDS011;20331;53.144;8.208;2023-11-21T07:29:53;13.65;;;10.48;;
29162;SDS011;20331;53.144;8.208;2023-11-21T07:35:14;17.45;;;10.25;;
29162;SDS011;20331;53.144;8.208;2023-11-21T07:40:36;14.25;;;10.35;;
29162;SDS011;20331;53.144;8.208;2023-11-21T07:45:58;15.93;;;10.65;;
29162;SDS011;20331;53.144;8.208;2023-11-21T07:51:20;16.58;;;10.10;;
29162;SDS011;20331;53.144;8.208;2023-11-21T07:56:43;17.17;;;10.80;;
29162;SDS011;20331;53.144;8.208;2023-11-21T08:02:05;15.55;;;10.05;;
29162;SDS011;20331;53.144;8.208;2023-11-21T08:07:27;19.23;;;10.85;;
29162;SDS011;20331;53.144;8.208;2023-11-21T08:12:48;18.40;;;10.10;;
29162;SDS011;20331;53.144;8.208;2023-11-21T08:18:12;14.68;;;10.13;;
29162;SDS011;20331;53.144;8.208;2023-11-21T08:23:36;16.75;;;10.00;;
29162;SDS011;20331;53.144;8.208;2023-11-21T08:28:58;20.05;;;10.95;;
29162;SDS011;20331;53.144;8.208;2023-11-21T08:34:19;17.88;;;10.80;;
29162;SDS011;20331;53.144;8.208;2023-11-21T08:39:41;17.10;;;10.48;;
29162;SDS011;20331;53.144;8.208;2023-11-21T08:45:04;15.10;;;10.77;;
29162;SDS011;20331;53.144;8.208;2023-11-21T08:50:27;18.98;;;11.18;;
29162;SDS011;20331;53.144;8.208;2023-11-21T08:55:49;14.88;;;10.35;;
29162;SDS011;20331;53.144;8.208;2023-11-21T09:01:11;17.38;;;11.38;;
29162;SDS011;20331;53.144;8.208;2023-11-21T09:06:33;16.50;;;10.80;;
29162;SDS011;20331;53.144;8.208;2023-11-21T09:11:56;18.20;;;10.77;;
29162;SDS011;20331;53.144;8.208;2023-11-21T09:17:18;19.73;;;10.82;;
29162;SDS011;20331;53.144;8.208;2023-11-21T09:22:40;14.75;;;10.77;;
29162;SDS011;20331;53.144;8.208;2023-11-21T09:28:02;15.63;;;11.60;;
29162;SDS011;20331;53.144;8.208;2023-11-21T09:33:29;16.75;;;10.25;;
29162;SDS011;20331;53.144;8.208;2023-11-21T09:38:51;15.15;;;10.18;;
29162;SDS011;20331;53.144;8.208;2023-11-21T09:44:16;13.85;;;9.57;;
29162;SDS011;20331;53.144;8.208;2023-11-21T09:49:40;16.70;;;10.15;;
29162;SDS011;20331;53.144;8.208;2023-11-21T09:55:02;15.85;;;10.82;;
29162;SDS011;20331;53.144;8.208;2023-11-21T10:00:23;14.75;;;10.27;;
29162;SDS011;20331;53.144;8.208;2023-11-21T10:05:45;15.95;;;10.43;;
29162;SDS011;20331;53.144;8.208;2023-11-21T10:11:11;14.95;;;10.13;;
29162;SDS011;20331;53.144;8.208;2023-11-21T10:16:36;12.73;;;9.82;;
29162;SDS011;20331;53.144;8.208;2023-11-21T10:21:59;13.90;;;9.70;;
29162;SDS011;20331;53.144;8.208;2023-11-21T10:27:23;17.98;;;10.25;;
29162;SDS011;20331;53.144;8.208;2023-11-21T10:32:48;13.25;;;9.57;;
29162;SDS011;20331;53.144;8.208;2023-11-21T10:38:10;11.95;;;9.00;;
29162;SDS011;20331;53.144;8.208;2023-11-21T10:43:31;16.55;;;9.55;;
29162;SDS011;20331;53.144;8.208;2023-11-21T10:48:56;15.73;;;9.65;;
29162;SDS011;20331;53.144;8.208;2023-11-21T10:54:18;16.02;;;10.10;;
29162;SDS011;20331;53.144;8.208;2023-11-21T10:59:46;20.80;;;9.75;;
29162;SDS011;20331;53.144;8.208;2023-11-21T11:05:10;12.77;;;9.95;;
29162;SDS011;20331;53.144;8.208;2023-11-21T11:10:33;14.15;;;10.23;;
29162;SDS011;20331;53.144;8.208;2023-11-21T11:15:57;17.35;;;9.93;;
29162;SDS011;20331;53.144;8.208;2023-11-21T11:21:36;14.48;;;9.57;;
29162;SDS011;20331;53.144;8.208;2023-11-21T11:38:23;13.90;;;8.77;;
29162;SDS011;20331;53.144;8.208;2023-11-21T11:43:44;13.68;;;8.57;;
29162;SDS011;20331;53.144;8.208;2023-11-21T11:49:06;13.88;;;8.27;;
29162;SDS011;20331;53.144;8.208;2023-11-21T11:54:35;13.18;;;7.95;;
29162;SDS011;20331;53.144;8.208;2023-11-21T12:00:08;16.58;;;8.25;;
29162;SDS011;20331;53.144;8.208;2023-11-21T12:05:46;14.75;;;8.50;;
29162;SDS011;20331;53.144;8.208;2023-11-21T12:11:08;13.23;;;8.05;;
29162;SDS011;20331;53.144;8.208;2023-11-21T12:16:32;11.30;;;7.47;;
29162;SDS011;20331;53.144;8.208;2023-11-21T12:21:54;10.57;;;7.72;;
29162;SDS011;20331;53.144;8.208;2023-11-21T12:27:17;12.27;;;6.38;;
29162;SDS011;20331;53.144;8.208;2023-11-21T12:32:39;8.32;;;5.03;;
29162;SDS011;20331;53.144;8.208;2023-11-21T12:38:04;7.47;;;4.53;;
29162;SDS011;20331;53.144;8.208;2023-11-21T12:43:27;8.98;;;4.18;;
29162;SDS011;20331;53.144;8.208;2023-11-21T12:48:51;8.35;;;4.03;;
29162;SDS011;20331;53.144;8.208;2023-11-21T12:54:13;8.23;;;3.60;;
29162;SDS011;20331;53.144;8.208;2023-11-21T12:59:35;9.27;;;4.32;;
29162;SDS011;20331;53.144;8.208;2023-11-21T13:04:57;10.00;;;5.30;;
29162;SDS011;20331;53.144;8.208;2023-11-21T13:10:21;10.07;;;5.70;;
29162;SDS011;20331;53.144;8.208;2023-11-21T13:15:54;8.68;;;5.55;;
29162;SDS011;20331;53.144;8.208;2023-11-21T13:21:22;8.32;;;5.70;;
29162;SDS011;20331;53.144;8.208;2023-11-21T13:26:44;8.80;;;5.82;;
29162;SDS011;20331;53.144;8.208;2023-11-21T13:32:08;11.98;;;5.65;;
29162;SDS011;20331;53.144;8.208;2023-11-21T13:37:33;8.52;;;5.28;;
29162;SDS011;20331;53.144;8.208;2023-11-21T13:42:56;10.10;;;5.93;;
29162;SDS011;20331;53.144;8.208;2023-11-21T13:48:20;8.85;;;5.22;;
29162;SDS011;20331;53.144;8.208;2023-11-21T13:53:49;7.43;;;5.10;;
29162;SDS011;20331;53.144;8.208;2023-11-21T13:59:13;7.68;;;5.45;;
29162;SDS011;20331;53.144;8.208;2023-11-21T14:05:01;9.98;;;5.30;;
29162;SDS011;20331;53.144;8.208;2023-11-21T14:10:30;10.18;;;5.93;;
29162;SDS011;20331;53.144;8.208;2023-11-21T14:16:04;8.52;;;4.90;;
29162;SDS011;20331;53.144;8.208;2023-11-21T14:21:28;7.13;;;5.22;;
29162;SDS011;20331;53.144;8.208;2023-11-21T14:26:49;6.10;;;4.63;;
29162;SDS011;20331;53.144;8.208;2023-11-21T14:32:12;6.57;;;5.00;;
29162;SDS011;20331;53.144;8.208;2023-11-21T14:37:36;6.55;;;4.95;;
29162;SDS011;20331;53.144;8.208;2023-11-21T14:42:57;7.85;;;5.45;;
29162;SDS011;20331;53.144;8.208;2023-11-21T14:48:19;8.27;;;4.55;;
29162;SDS011;20331;53.144;8.208;2023-11-21T14:53:59;9.23;;;5.63;;
29162;SDS011;20331;53.144;8.208;2023-11-21T14:59:27;10.95;;;5.47;;
29162;SDS011;20331;53.144;8.208;2023-11-21T15:04:49;10.05;;;6.53;;
29162;SDS011;20331;53.144;8.208;2023-11-21T15:10:14;12.60;;;6.38;;
29162;SDS011;20331;53.144;8.208;2023-11-21T15:15:42;9.77;;;6.40;;
29162;SDS011;20331;53.144;8.208;2023-11-21T15:21:03;8.23;;;6.30;;
29162;SDS011;20331;53.144;8.208;2023-11-21T15:26:25;9.65;;;6.75;;
29162;SDS011;20331;53.144;8.208;2023-11-21T15:31:51;7.53;;;5.65;;
29162;SDS011;20331;53.144;8.208;2023-11-21T15:37:17;8.20;;;6.18;;
29162;SDS011;20331;53.144;8.208;2023-11-21T15:42:39;10.10;;;6.75;;
29162;SDS011;20331;53.144;8.208;2023-11-21T15:48:01;12.18;;;6.95;;
29162;SDS011;20331;53.144;8.208;2023-11-21T15:53:23;10.70;;;7.75;;
29162;SDS011;20331;53.144;8.208;2023-11-21T15:58:45;11.15;;;7.18;;
29162;SDS011;20331;53.144;8.208;2023-11-21T16:04:11;9.60;;;5.97;;
29162;SDS011;20331;53.144;8.208;2023-11-21T16:09:37;8.18;;;5.22;;
29162;SDS011;20331;53.144;8.208;2023-11-21T16:15:00;6.15;;;4.75;;
29162;SDS011;20331;53.144;8.208;2023-11-21T16:20:29;6.55;;;4.47;;
29162;SDS011;20331;53.144;8.208;2023-11-21T16:25:50;7.63;;;5.10;;
29162;SDS011;20331;53.144;8.208;2023-11-21T16:31:22;5.30;;;4.28;;
29162;SDS011;20331;53.144;8.208;2023-11-21T16:36:45;6.57;;;4.90;;
29162;SDS011;20331;53.144;8.208;2023-11-21T16:42:07;8.23;;;4.40;;
29162;SDS011;20331;53.144;8.208;2023-11-21T16:47:29;7.85;;;4.47;;
29162;SDS011;20331;53.144;8.208;2023-11-21T16:52:53;8.50;;;4.50;;
29162;SDS011;20331;53.144;8.208;2023-11-21T16:58:15;8.15;;;4.20;;
29162;SDS011;20331;53.144;8.208;2023-11-21T17:03:37;4.57;;;3.65;;
29162;SDS011;20331;53.144;8.208;2023-11-21T17:08:58;4.90;;;3.25;;
29162;SDS011;20331;53.144;8.208;2023-11-21T17:14:22;7.03;;;3.03;;
29162;SDS011;20331;53.144;8.208;2023-11-21T17:19:44;5.40;;;2.78;;
29162;SDS011;20331;53.144;8.208;2023-11-21T17:25:07;4.00;;;2.70;;
29162;SDS011;20331;53.144;8.208;2023-11-21T17:30:30;4.85;;;2.55;;
29162;SDS011;20331;53.144;8.208;2023-11-21T17:35:52;3.25;;;2.67;;
29162;SDS011;20331;53.144;8.208;2023-11-21T17:41:20;6.15;;;2.80;;
29162;SDS011;20331;53.144;8.208;2023-11-21T17:46:42;5.18;;;3.50;;
29162;SDS011;20331;53.144;8.208;2023-11-21T17:52:04;3.58;;;3.20;;
29162;SDS011;20331;53.144;8.208;2023-11-21T17:57:27;4.75;;;3.15;;
29162;SDS011;20331;53.144;8.208;2023-11-21T18:02:49;4.00;;;3.42;;
29162;SDS011;20331;53.144;8.208;2023-11-21T18:08:10;8.50;;;4.13;;
29162;SDS011;20331;53.144;8.208;2023-11-21T18:13:32;4.13;;;3.38;;
29162;SDS011;20331;53.144;8.208;2023-11-21T18:18:54;4.97;;;3.38;;
29162;SDS011;20331;53.144;8.208;2023-11-21T18:24:16;7.60;;;3.50;;
29162;SDS011;20331;53.144;8.208;2023-11-21T18:29:37;8.00;;;4.63;;
29162;SDS011;20331;53.144;8.208;2023-11-21T18:34:59;6.65;;;4.00;;
29162;SDS011;20331;53.144;8.208;2023-11-21T18:40:21;11.13;;;5.07;;
29162;SDS011;20331;53.144;8.208;2023-11-21T18:45:42;9.43;;;4.18;;
29162;SDS011;20331;53.144;8.208;2023-11-21T18:51:04;5.47;;;3.88;;
29162;SDS011;20331;53.144;8.208;2023-11-21T18:56:28;7.88;;;4.38;;
29162;SDS011;20331;53.144;8.208;2023-11-21T19:01:52;6.05;;;4.00;;
29162;SDS011;20331;53.144;8.208;2023-11-21T19:07:14;5.25;;;3.78;;
29162;SDS011;20331;53.144;8.208;2023-11-21T19:12:35;4.68;;;3.45;;
29162;SDS011;20331;53.144;8.208;2023-11-21T19:17:59;7.30;;;4.00;;
29162;SDS011;20331;53.144;8.208;2023-11-21T19:23:21;9.48;;;4.78;;
29162;SDS011;20331;53.144;8.208;2023-11-21T19:28:42;7.68;;;4.25;;
29162;SDS011;20331;53.144;8.208;2023-11-21T19:34:04;6.93;;;4.20;;
29162;SDS011;20331;53.144;8.208;2023-11-21T19:39:26;9.77;;;5.22;;
29162;SDS011;20331;53.144;8.208;2023-11-21T19:44:47;7.50;;;4.70;;
29162;SDS011;20331;53.144;8.208;2023-11-21T19:50:09;7.47;;;4.93;;
29162;SDS011;20331;53.144;8.208;2023-11-21T19:55:31;9.73;;;4.82;;
29162;SDS011;20331;53.144;8.208;2023-11-21T20:00:54;11.90;;;4.90;;
29162;SDS011;20331;53.144;8.208;2023-11-21T20:06:16;16.05;;;5.07;;
29162;SDS011;20331;53.144;8.208;2023-11-21T20:11:38;10.15;;;5.45;;
29162;SDS011;20331;53.144;8.208;2023-11-21T20:16:59;7.88;;;5.35;;
29162;SDS011;20331;53.144;8.208;2023-11-21T20:22:21;9.50;;;5.65;;
29162;SDS011;20331;53.144;8.208;2023-11-21T20:27:43;9.20;;;5.07;;
29162;SDS011;20331;53.144;8.208;2023-11-21T20:33:05;13.70;;;5.70;;
29162;SDS011;20331;53.144;8.208;2023-11-21T20:38:27;11.15;;;5.60;;
29162;SDS011;20331;53.144;8.208;2023-11-21T20:43:49;10.43;;;6.45;;
29162;SDS011;20331;53.144;8.208;2023-11-21T20:49:12;11.98;;;6.38;;
29162;SDS011;20331;53.144;8.208;2023-11-21T20:54:35;11.25;;;6.47;;
29162;SDS011;20331;53.144;8.208;2023-11-21T20:59:57;12.60;;;6.28;;
29162;SDS011;20331;53.144;8.208;2023-11-21T21:05:18;9.10;;;5.78;;
29162;SDS011;20331;53.144;8.208;2023-11-21T21:10:44;9.40;;;6.43;;
29162;SDS011;20331;53.144;8.208;2023-11-21T21:16:06;9.15;;;6.50;;
29162;SDS011;20331;53.144;8.208;2023-11-21T21:21:30;9.02;;;5.45;;
29162;SDS011;20331;53.144;8.208;2023-11-21T21:26:53;11.50;;;6.50;;
29162;SDS011;20331;53.144;8.208;2023-11-21T21:32:15;8.77;;;5.53;;
29162;SDS011;20331;53.144;8.208;2023-11-21T21:37:38;10.93;;;6.03;;
29162;SDS011;20331;53.144;8.208;2023-11-21T21:43:01;11.27;;;6.70;;
29162;SDS011;20331;53.144;8.208;2023-11-21T21:48:24;13.35;;;7.20;;
29162;SDS011;20331;53.144;8.208;2023-11-21T21:53:49;15.23;;;7.60;;
29162;SDS011;20331;53.144;8.208;2023-11-21T21:59:11;12.88;;;7.60;;
29162;SDS011;20331;53.144;8.208;2023-11-21T22:04:33;10.98;;;7.30;;
29162;SDS011;20331;53.144;8.208;2023-11-21T22:09:55;14.02;;;7.82;;
29162;SDS011;20331;53.144;8.208;2023-11-21T22:15:24;11.30;;;6.88;;
29162;SDS011;20331;53.144;8.208;2023-11-21T22:20:45;12.90;;;6.82;;
29162;SDS011;20331;53.144;8.208;2023-11-21T22:26:13;14.25;;;7.43;;
29162;SDS011;20331;53.144;8.208;2023-11-21T22:31:40;12.70;;;7.40;;
29162;SDS011;20331;53.144;8.208;2023-11-21T22:37:16;11.25;;;7.63;;
29162;SDS011;20331;53.144;8.208;2023-11-21T22:42:38;12.43;;;6.97;;
29162;SDS011;20331;53.144;8.208;2023-11-21T22:48:00;14.35;;;7.78;;
29162;SDS011;20331;53.144;8.208;2023-11-21T22:53:22;12.98;;;7.97;;
29162;SDS011;20331;53.144;8.208;2023-11-21T22:58:49;11.55;;;7.47;;
29162;SDS011;20331;53.144;8.208;2023-11-21T23:04:11;10.00;;;6.82;;
29162;SDS011;20331;53.144;8.208;2023-11-21T23:09:33;12.27;;;7.22;;
29162;SDS011;20331;53.144;8.208;2023-11-21T23:14:56;10.63;;;6.93;;
29162;SDS011;20331;53.144;8.208;2023-11-21T23:20:20;10.70;;;6.93;;
29162;SDS011;20331;53.144;8.208;2023-11-21T23:25:43;15.05;;;8.10;;
29162;SDS011;20331;53.144;8.208;2023-11-21T23:31:05;13.50;;;7.68;;
29162;SDS011;20331;53.144;8.208;2023-11-21T23:36:27;15.05;;;7.78;;
29162;SDS011;20331;53.144;8.208;2023-11-21T23:41:48;13.75;;;8.20;;
29162;SDS011;20331;53.144;8.208;2023-11-21T23:47:13;12.88;;;8.13;;
29162;SDS011;20331;53.144;8.208;2023-11-21T23:52:35;14.80;;;7.78;;
29162;SDS011;20331;53.144;8.208;2023-11-21T23:57:56;16.15;;;7.93;;
